»·PEaware :: N182BL KUDD-KSNA

N182BL :: KUDD-KSNA

FLIGHT INFORMATION

Flight Status: Arrived
Operator: Privately registered:
United States
More flights under this callsign
Pilot: James D. (13710)
Aircraft: BEECH AIRCRAFT BARON
(BE58)
More flights by this aircraft type
Origin: KUDD Bermuda Dunes
United States
Destination: KSNA John Wayne-Orange Co
United States
More flights between these airports :: More routes between these airports
Route:
File this flight plan on PilotEdge
Remarks:
Altitude:
(Current/Filed)
8,500ft
Speed:
(Current/Filed)
185kts
Departed: 08-Aug-17 10:24 AM
Arrived: 08-Aug-17 10:58 AM
Distance/Time
Traveled:
80nm/0:34
Distance/Time
To Go:
Arrived

Flight Plot

Page will automatically refresh every two minutes.

Flight plan parsing failed; only flown route is shown


Map Options




Map Legend


Flown Route
Filed Route
Departure Airport
Arrival Airport
Navaid (VOR, NDB)
Fix

Horizontal Profiles

Position Reports

Time Latitude Longitude Heading Altitude Ground
Speed
08-Aug-17 10:13 33.745693 -116.272363 90 63ft 0kts
08-Aug-17 10:14 33.745693 -116.272363 90 63ft 0kts
08-Aug-17 10:15 33.745693 -116.272363 90 63ft 0kts
08-Aug-17 10:16 33.745693 -116.272363 90 63ft 0kts
08-Aug-17 10:17 33.745693 -116.272363 90 63ft 0kts
08-Aug-17 10:18 33.745693 -116.272363 90 63ft 0kts
08-Aug-17 10:19 33.745693 -116.272363 90 63ft 0kts
08-Aug-17 10:20 33.745693 -116.272363 90 63ft 0kts
08-Aug-17 10:21 33.745693 -116.272363 90 63ft 0kts
08-Aug-17 10:22 33.745693 -116.272313 90 63ft 0kts
08-Aug-17 10:23 33.745693 -116.272313 90 63ft 0kts
08-Aug-17 10:24 33.745693 -116.272313 90 63ft 0kts
08-Aug-17 10:25 33.745693 -116.272313 90 63ft 0kts
08-Aug-17 10:26 33.746527 -116.271571 115 63ft 18kts
08-Aug-17 10:27 33.748958 -116.276193 298 81ft 111kts
08-Aug-17 10:28 33.760108 -116.313203 260 1831ft 127kts
08-Aug-17 10:29 33.743922 -116.354704 243 3111ft 168kts
08-Aug-17 10:30 33.721038 -116.406487 243 4142ft 172kts
08-Aug-17 10:31 33.699022 -116.455915 244 5359ft 161kts
08-Aug-17 10:32 33.680184 -116.503448 246 6286ft 156kts
08-Aug-17 10:33 33.661761 -116.550200 246 7114ft 154kts
08-Aug-17 10:34 33.643407 -116.596755 246 7888ft 154kts
08-Aug-17 10:35 33.625031 -116.643385 246 8466ft 163kts
08-Aug-17 10:36 33.606485 -116.691021 246 8465ft 183kts
08-Aug-17 10:37 33.595929 -116.749643 268 8462ft 184kts
08-Aug-17 10:38 33.593152 -116.810837 268 8461ft 184kts
08-Aug-17 10:39 33.590387 -116.872351 268 8461ft 184kts
08-Aug-17 10:40 33.587642 -116.933704 268 8461ft 184kts
08-Aug-17 10:41 33.584900 -116.995747 268 8378ft 186kts
08-Aug-17 10:42 33.583051 -117.057352 270 8379ft 184kts
08-Aug-17 10:43 33.583809 -117.118949 276 8379ft 184kts
08-Aug-17 10:44 33.588223 -117.179890 276 8379ft 184kts
08-Aug-17 10:45 33.592676 -117.241021 276 8379ft 184kts
08-Aug-17 10:46 33.597213 -117.302758 276 8189ft 192kts
08-Aug-17 10:47 33.602188 -117.368372 276 7702ft 200kts
08-Aug-17 10:48 33.607283 -117.435337 276 7262ft 201kts
08-Aug-17 10:49 33.612382 -117.502205 276 6842ft 201kts
08-Aug-17 10:50 33.617163 -117.566707 276 6230ft 170kts
08-Aug-17 10:51 33.611129 -117.616063 252 4956ft 136kts
08-Aug-17 10:52 33.599735 -117.654625 252 3631ft 125kts
08-Aug-17 10:53 33.589312 -117.694495 258 2603ft 121kts
08-Aug-17 10:54 33.588770 -117.735567 279 2237ft 126kts
08-Aug-17 10:55 33.591990 -117.776728 279 1786ft 121kts
08-Aug-17 10:56 33.604531 -117.812794 326 1831ft 125kts
08-Aug-17 10:57 33.635764 -117.828330 339 1628ft 116kts
08-Aug-17 10:58 33.664695 -117.846277 332 932ft 112kts
08-Aug-17 10:59 33.692596 -117.838950 350 945ft 100kts
08-Aug-17 11:00 33.682551 -117.862623 207 94ft 109kts
08-Aug-17 11:01 33.673610 -117.867382 187 59ft 0kts
08-Aug-17 11:02 33.673441 -117.867522 224 59ft 4kts
08-Aug-17 11:03 33.669043 -117.870218 127 59ft 11kts

Navigation Log

Ident Type
Flight plan parsing failed, navigation log unavailable